sensor_id;sensor_type;location;lat;lon;timestamp;temperature;humidity
47861;HTU21D;33620;52.340;5.984;2024-01-10T00:00:26;-3.12;70.13
47861;HTU21D;33620;52.340;5.984;2024-01-10T00:02:51;-3.15;70.16
47861;HTU21D;33620;52.340;5.984;2024-01-10T00:05:17;-3.15;70.10
47861;HTU21D;33620;52.340;5.984;2024-01-10T00:07:43;-3.17;70.10
47861;HTU21D;33620;52.340;5.984;2024-01-10T00:10:08;-3.16;70.18
47861;HTU21D;33620;52.340;5.984;2024-01-10T00:12:34;-3.18;70.15
47861;HTU21D;33620;52.340;5.984;2024-01-10T00:15:04;-3.16;70.14
47861;HTU21D;33620;52.340;5.984;2024-01-10T00:17:31;-3.15;70.18
47861;HTU21D;33620;52.340;5.984;2024-01-10T00:19:56;-3.19;70.20
47861;HTU21D;33620;52.340;5.984;2024-01-10T00:22:21;-3.21;70.26
47861;HTU21D;33620;52.340;5.984;2024-01-10T00:24:47;-3.23;70.32
47861;HTU21D;33620;52.340;5.984;2024-01-10T00:27:12;-3.24;70.48
47861;HTU21D;33620;52.340;5.984;2024-01-10T00:29:38;-3.23;70.55
47861;HTU21D;33620;52.340;5.984;2024-01-10T00:32:03;-3.24;70.64
47861;HTU21D;33620;52.340;5.984;2024-01-10T00:34:29;-3.26;70.67
47861;HTU21D;33620;52.340;5.984;2024-01-10T00:36:54;-3.27;70.90
47861;HTU21D;33620;52.340;5.984;2024-01-10T00:39:20;-3.31;70.90
47861;HTU21D;33620;52.340;5.984;2024-01-10T00:41:45;-3.32;70.84
47861;HTU21D;33620;52.340;5.984;2024-01-10T00:44:10;-3.33;71.01
47861;HTU21D;33620;52.340;5.984;2024-01-10T00:46:36;-3.32;71.16
47861;HTU21D;33620;52.340;5.984;2024-01-10T00:49:02;-3.31;71.11
47861;HTU21D;33620;52.340;5.984;2024-01-10T00:51:27;-3.31;71.04
47861;HTU21D;33620;52.340;5.984;2024-01-10T00:53:53;-3.28;71.07
47861;HTU21D;33620;52.340;5.984;2024-01-10T00:56:18;-3.31;71.01
47861;HTU21D;33620;52.340;5.984;2024-01-10T00:58:43;-3.30;70.99
47861;HTU21D;33620;52.340;5.984;2024-01-10T01:01:09;-3.31;70.94
47861;HTU21D;33620;52.340;5.984;2024-01-10T01:03:34;-3.31;71.09
47861;HTU21D;33620;52.340;5.984;2024-01-10T01:06:01;-3.32;71.14
47861;HTU21D;33620;52.340;5.984;2024-01-10T01:08:26;-3.33;71.16
47861;HTU21D;33620;52.340;5.984;2024-01-10T01:10:51;-3.32;71.21
47861;HTU21D;33620;52.340;5.984;2024-01-10T01:13:17;-3.36;71.24
47861;HTU21D;33620;52.340;5.984;2024-01-10T01:15:43;-3.35;71.40
47861;HTU21D;33620;52.340;5.984;2024-01-10T01:18:08;-3.39;71.60
47861;HTU21D;33620;52.340;5.984;2024-01-10T01:20:35;-3.38;71.60
47861;HTU21D;33620;52.340;5.984;2024-01-10T01:23:00;-3.38;71.74
47861;HTU21D;33620;52.340;5.984;2024-01-10T01:25:26;-3.40;71.73
47861;HTU21D;33620;52.340;5.984;2024-01-10T01:27:51;-3.40;71.84
47861;HTU21D;33620;52.340;5.984;2024-01-10T01:30:16;-3.39;71.87
47861;HTU21D;33620;52.340;5.984;2024-01-10T01:32:42;-3.42;71.90
47861;HTU21D;33620;52.340;5.984;2024-01-10T01:35:07;-3.46;72.05
47861;HTU21D;33620;52.340;5.984;2024-01-10T01:37:33;-3.47;72.09
47861;HTU21D;33620;52.340;5.984;2024-01-10T01:39:58;-3.50;72.28
47861;HTU21D;33620;52.340;5.984;2024-01-10T01:42:23;-3.53;72.58
47861;HTU21D;33620;52.340;5.984;2024-01-10T01:44:49;-3.50;72.62
47861;HTU21D;33620;52.340;5.984;2024-01-10T01:47:14;-3.52;72.51
47861;HTU21D;33620;52.340;5.984;2024-01-10T01:49:41;-3.53;72.56
47861;HTU21D;33620;52.340;5.984;2024-01-10T01:52:08;-3.52;72.65
47861;HTU21D;33620;52.340;5.984;2024-01-10T01:54:34;-3.53;72.54
47861;HTU21D;33620;52.340;5.984;2024-01-10T01:57:00;-3.52;72.54
47861;HTU21D;33620;52.340;5.984;2024-01-10T01:59:25;-3.55;72.40
47861;HTU21D;33620;52.340;5.984;2024-01-10T02:01:54;-3.56;72.40
47861;HTU21D;33620;52.340;5.984;2024-01-10T02:04:20;-3.57;72.48
47861;HTU21D;33620;52.340;5.984;2024-01-10T02:06:45;-3.56;72.49
47861;HTU21D;33620;52.340;5.984;2024-01-10T02:09:11;-3.56;72.50
47861;HTU21D;33620;52.340;5.984;2024-01-10T02:11:36;-3.53;72.51
47861;HTU21D;33620;52.340;5.984;2024-01-10T02:14:02;-3.55;72.33
47861;HTU21D;33620;52.340;5.984;2024-01-10T02:16:27;-3.55;72.40
47861;HTU21D;33620;52.340;5.984;2024-01-10T02:18:53;-3.54;72.24
47861;HTU21D;33620;52.340;5.984;2024-01-10T02:21:21;-3.57;72.16
47861;HTU21D;33620;52.340;5.984;2024-01-10T02:23:47;-3.57;72.25
47861;HTU21D;33620;52.340;5.984;2024-01-10T02:26:14;-3.58;72.12
47861;HTU21D;33620;52.340;5.984;2024-01-10T02:28:40;-3.61;72.21
47861;HTU21D;33620;52.340;5.984;2024-01-10T02:31:05;-3.61;72.26
47861;HTU21D;33620;52.340;5.984;2024-01-10T02:33:31;-3.62;72.19
47861;HTU21D;33620;52.340;5.984;2024-01-10T02:35:57;-3.62;72.31
47861;HTU21D;33620;52.340;5.984;2024-01-10T02:38:22;-3.61;72.24
47861;HTU21D;33620;52.340;5.984;2024-01-10T02:40:49;-3.61;72.16
47861;HTU21D;33620;52.340;5.984;2024-01-10T02:43:14;-3.64;72.11
47861;HTU21D;33620;52.340;5.984;2024-01-10T02:45:39;-3.67;71.97
47861;HTU21D;33620;52.340;5.984;2024-01-10T02:48:05;-3.72;72.09
47861;HTU21D;33620;52.340;5.984;2024-01-10T02:50:30;-3.71;72.23
47861;HTU21D;33620;52.340;5.984;2024-01-10T02:52:56;-3.69;72.09
47861;HTU21D;33620;52.340;5.984;2024-01-10T02:55:21;-3.69;72.16
47861;HTU21D;33620;52.340;5.984;2024-01-10T02:57:46;-3.71;72.11
47861;HTU21D;33620;52.340;5.984;2024-01-10T03:00:12;-3.75;72.20
47861;HTU21D;33620;52.340;5.984;2024-01-10T03:02:38;-3.75;72.33
47861;HTU21D;33620;52.340;5.984;2024-01-10T03:05:04;-3.76;72.24
47861;HTU21D;33620;52.340;5.984;2024-01-10T03:07:29;-3.80;72.14
47861;HTU21D;33620;52.340;5.984;2024-01-10T03:09:54;-3.81;72.16
47861;HTU21D;33620;52.340;5.984;2024-01-10T03:12:20;-3.82;72.07
47861;HTU21D;33620;52.340;5.984;2024-01-10T03:14:45;-3.80;72.09
47861;HTU21D;33620;52.340;5.984;2024-01-10T03:17:10;-3.79;71.95
47861;HTU21D;33620;52.340;5.984;2024-01-10T03:19:36;-3.78;72.14
47861;HTU21D;33620;52.340;5.984;2024-01-10T03:22:07;-3.79;72.07
47861;HTU21D;33620;52.340;5.984;2024-01-10T03:24:33;-3.82;72.36
47861;HTU21D;33620;52.340;5.984;2024-01-10T03:26:58;-3.82;72.45
47861;HTU21D;33620;52.340;5.984;2024-01-10T03:29:23;-3.82;72.56
47861;HTU21D;33620;52.340;5.984;2024-01-10T03:31:49;-3.85;72.74
47861;HTU21D;33620;52.340;5.984;2024-01-10T03:34:14;-3.87;72.90
47861;HTU21D;33620;52.340;5.984;2024-01-10T03:36:42;-3.91;72.92
47861;HTU21D;33620;52.340;5.984;2024-01-10T03:39:07;-3.92;73.06
47861;HTU21D;33620;52.340;5.984;2024-01-10T03:41:33;-3.90;72.99
47861;HTU21D;33620;52.340;5.984;2024-01-10T03:43:58;-3.93;73.06
47861;HTU21D;33620;52.340;5.984;2024-01-10T03:46:23;-3.91;73.10
47861;HTU21D;33620;52.340;5.984;2024-01-10T03:48:49;-3.90;73.22
47861;HTU21D;33620;52.340;5.984;2024-01-10T03:51:15;-3.90;73.09
47861;HTU21D;33620;52.340;5.984;2024-01-10T03:53:41;-3.87;73.14
47861;HTU21D;33620;52.340;5.984;2024-01-10T03:56:06;-3.87;73.06
47861;HTU21D;33620;52.340;5.984;2024-01-10T03:58:32;-3.90;73.11
47861;HTU21D;33620;52.340;5.984;2024-01-10T04:00:58;-3.91;73.06
47861;HTU21D;33620;52.340;5.984;2024-01-10T04:03:23;-3.90;73.07
47861;HTU21D;33620;52.340;5.984;2024-01-10T04:05:48;-3.90;73.06
47861;HTU21D;33620;52.340;5.984;2024-01-10T04:08:14;-3.93;73.10
47861;HTU21D;33620;52.340;5.984;2024-01-10T04:10:39;-3.92;73.24
47861;HTU21D;33620;52.340;5.984;2024-01-10T04:13:04;-3.92;73.12
47861;HTU21D;33620;52.340;5.984;2024-01-10T04:15:30;-3.92;73.10
47861;HTU21D;33620;52.340;5.984;2024-01-10T04:17:55;-3.91;72.91
47861;HTU21D;33620;52.340;5.984;2024-01-10T04:20:20;-3.92;72.79
47861;HTU21D;33620;52.340;5.984;2024-01-10T04:22:46;-3.97;72.76
47861;HTU21D;33620;52.340;5.984;2024-01-10T04:25:12;-4.00;72.82
47861;HTU21D;33620;52.340;5.984;2024-01-10T04:27:37;-3.97;72.87
47861;HTU21D;33620;52.340;5.984;2024-01-10T04:30:04;-3.97;72.86
47861;HTU21D;33620;52.340;5.984;2024-01-10T04:32:29;-3.97;72.73
47861;HTU21D;33620;52.340;5.984;2024-01-10T04:34:55;-3.97;72.68
47861;HTU21D;33620;52.340;5.984;2024-01-10T04:37:20;-3.96;72.65
47861;HTU21D;33620;52.340;5.984;2024-01-10T04:39:45;-3.97;72.54
47861;HTU21D;33620;52.340;5.984;2024-01-10T04:42:11;-3.97;72.41
47861;HTU21D;33620;52.340;5.984;2024-01-10T04:44:37;-3.93;72.49
47861;HTU21D;33620;52.340;5.984;2024-01-10T04:47:03;-3.91;72.35
47861;HTU21D;33620;52.340;5.984;2024-01-10T04:49:28;-3.91;72.22
47861;HTU21D;33620;52.340;5.984;2024-01-10T04:51:54;-3.91;72.08
47861;HTU21D;33620;52.340;5.984;2024-01-10T04:54:19;-3.92;71.73
47861;HTU21D;33620;52.340;5.984;2024-01-10T04:56:45;-3.94;71.65
47861;HTU21D;33620;52.340;5.984;2024-01-10T04:59:11;-3.95;71.68
47861;HTU21D;33620;52.340;5.984;2024-01-10T05:01:36;-3.93;71.63
47861;HTU21D;33620;52.340;5.984;2024-01-10T05:04:02;-3.95;71.39
47861;HTU21D;33620;52.340;5.984;2024-01-10T05:06:28;-3.96;71.38
47861;HTU21D;33620;52.340;5.984;2024-01-10T05:08:53;-3.98;71.39
47861;HTU21D;33620;52.340;5.984;2024-01-10T05:11:23;-3.95;71.53
47861;HTU21D;33620;52.340;5.984;2024-01-10T05:13:49;-3.92;71.49
47861;HTU21D;33620;52.340;5.984;2024-01-10T05:16:14;-3.87;71.55
47861;HTU21D;33620;52.340;5.984;2024-01-10T05:18:40;-3.87;71.35
47861;HTU21D;33620;52.340;5.984;2024-01-10T05:21:05;-3.86;71.32
47861;HTU21D;33620;52.340;5.984;2024-01-10T05:23:31;-3.87;71.23
47861;HTU21D;33620;52.340;5.984;2024-01-10T05:25:56;-3.89;71.15
47861;HTU21D;33620;52.340;5.984;2024-01-10T05:28:21;-3.91;71.14
47861;HTU21D;33620;52.340;5.984;2024-01-10T05:30:47;-3.87;71.08
47861;HTU21D;33620;52.340;5.984;2024-01-10T05:33:12;-3.86;70.90
47861;HTU21D;33620;52.340;5.984;2024-01-10T05:35:38;-3.89;70.72
47861;HTU21D;33620;52.340;5.984;2024-01-10T05:38:04;-3.90;70.90
47861;HTU21D;33620;52.340;5.984;2024-01-10T05:40:29;-3.92;70.93
47861;HTU21D;33620;52.340;5.984;2024-01-10T05:43:00;-3.91;70.61
47861;HTU21D;33620;52.340;5.984;2024-01-10T05:45:26;-3.92;70.70
47861;HTU21D;33620;52.340;5.984;2024-01-10T05:47:52;-3.91;70.57
47861;HTU21D;33620;52.340;5.984;2024-01-10T05:50:17;-3.92;70.19
47861;HTU21D;33620;52.340;5.984;2024-01-10T05:52:43;-3.92;70.29
47861;HTU21D;33620;52.340;5.984;2024-01-10T05:55:09;-3.92;70.09
47861;HTU21D;33620;52.340;5.984;2024-01-10T05:57:35;-3.93;69.93
47861;HTU21D;33620;52.340;5.984;2024-01-10T06:00:01;-3.95;69.63
47861;HTU21D;33620;52.340;5.984;2024-01-10T06:02:26;-3.96;69.38
47861;HTU21D;33620;52.340;5.984;2024-01-10T06:04:52;-3.96;69.11
47861;HTU21D;33620;52.340;5.984;2024-01-10T06:07:18;-3.96;69.20
47861;HTU21D;33620;52.340;5.984;2024-01-10T06:09:44;-3.95;69.25
47861;HTU21D;33620;52.340;5.984;2024-01-10T06:12:09;-3.93;68.91
47861;HTU21D;33620;52.340;5.984;2024-01-10T06:14:35;-3.94;68.78
47861;HTU21D;33620;52.340;5.984;2024-01-10T06:17:01;-3.94;68.60
47861;HTU21D;33620;52.340;5.984;2024-01-10T06:19:29;-3.94;68.36
47861;HTU21D;33620;52.340;5.984;2024-01-10T06:21:54;-3.94;68.27
47861;HTU21D;33620;52.340;5.984;2024-01-10T06:24:19;-3.96;68.16
47861;HTU21D;33620;52.340;5.984;2024-01-10T06:26:45;-3.98;67.99
47861;HTU21D;33620;52.340;5.984;2024-01-10T06:29:11;-3.98;68.09
47861;HTU21D;33620;52.340;5.984;2024-01-10T06:31:36;-3.97;68.10
47861;HTU21D;33620;52.340;5.984;2024-01-10T06:34:01;-3.97;68.28
47861;HTU21D;33620;52.340;5.984;2024-01-10T06:36:27;-3.96;68.28
47861;HTU21D;33620;52.340;5.984;2024-01-10T06:38:52;-3.97;68.52
47861;HTU21D;33620;52.340;5.984;2024-01-10T06:41:21;-4.00;68.22
47861;HTU21D;33620;52.340;5.984;2024-01-10T06:43:49;-4.00;68.26
47861;HTU21D;33620;52.340;5.984;2024-01-10T06:46:14;-4.05;68.20
47861;HTU21D;33620;52.340;5.984;2024-01-10T06:48:40;-4.02;68.34
47861;HTU21D;33620;52.340;5.984;2024-01-10T06:51:09;-3.99;68.42
47861;HTU21D;33620;52.340;5.984;2024-01-10T06:53:35;-4.01;68.43
47861;HTU21D;33620;52.340;5.984;2024-01-10T06:56:01;-4.05;68.49
47861;HTU21D;33620;52.340;5.984;2024-01-10T06:58:26;-4.02;68.45
47861;HTU21D;33620;52.340;5.984;2024-01-10T07:00:52;-4.02;68.49
47861;HTU21D;33620;52.340;5.984;2024-01-10T07:03:17;-4.02;68.56
47861;HTU21D;33620;52.340;5.984;2024-01-10T07:05:43;-4.01;68.69
47861;HTU21D;33620;52.340;5.984;2024-01-10T07:08:09;-4.01;68.68
47861;HTU21D;33620;52.340;5.984;2024-01-10T07:10:35;-3.99;68.82
47861;HTU21D;33620;52.340;5.984;2024-01-10T07:13:00;-3.98;68.91
47861;HTU21D;33620;52.340;5.984;2024-01-10T07:15:29;-3.98;68.90
47861;HTU21D;33620;52.340;5.984;2024-01-10T07:17:55;-4.01;68.82
47861;HTU21D;33620;52.340;5.984;2024-01-10T07:20:20;-4.02;68.91
47861;HTU21D;33620;52.340;5.984;2024-01-10T07:22:45;-4.06;69.00
47861;HTU21D;33620;52.340;5.984;2024-01-10T07:25:11;-4.06;69.04
47861;HTU21D;33620;52.340;5.984;2024-01-10T07:27:45;-4.05;69.10
47861;HTU21D;33620;52.340;5.984;2024-01-10T07:30:11;-4.06;69.19
47861;HTU21D;33620;52.340;5.984;2024-01-10T07:32:40;-4.08;68.39
47861;HTU21D;33620;52.340;5.984;2024-01-10T07:35:06;-4.08;68.46
47861;HTU21D;33620;52.340;5.984;2024-01-10T07:37:35;-4.08;68.46
47861;HTU21D;33620;52.340;5.984;2024-01-10T07:40:01;-4.07;68.30
47861;HTU21D;33620;52.340;5.984;2024-01-10T07:42:26;-4.07;68.02
47861;HTU21D;33620;52.340;5.984;2024-01-10T07:44:51;-4.06;67.87
47861;HTU21D;33620;52.340;5.984;2024-01-10T07:47:18;-4.10;67.81
47861;HTU21D;33620;52.340;5.984;2024-01-10T07:49:43;-4.09;67.97
47861;HTU21D;33620;52.340;5.984;2024-01-10T07:52:09;-4.06;67.87
47861;HTU21D;33620;52.340;5.984;2024-01-10T07:54:34;-4.01;67.93
47861;HTU21D;33620;52.340;5.984;2024-01-10T07:56:59;-4.00;67.92
47861;HTU21D;33620;52.340;5.984;2024-01-10T07:59:25;-3.97;67.85
47861;HTU21D;33620;52.340;5.984;2024-01-10T08:01:57;-3.93;67.89
47861;HTU21D;33620;52.340;5.984;2024-01-10T08:04:24;-3.98;67.27
47861;HTU21D;33620;52.340;5.984;2024-01-10T08:06:49;-3.95;67.55
47861;HTU21D;33620;52.340;5.984;2024-01-10T08:09:15;-3.97;67.45
47861;HTU21D;33620;52.340;5.984;2024-01-10T08:11:40;-3.94;67.45
47861;HTU21D;33620;52.340;5.984;2024-01-10T08:14:06;-3.91;67.66
47861;HTU21D;33620;52.340;5.984;2024-01-10T08:16:31;-3.89;67.72
47861;HTU21D;33620;52.340;5.984;2024-01-10T08:18:57;-3.87;67.79
47861;HTU21D;33620;52.340;5.984;2024-01-10T08:21:24;-3.83;67.89
47861;HTU21D;33620;52.340;5.984;2024-01-10T08:23:50;-3.81;67.97
47861;HTU21D;33620;52.340;5.984;2024-01-10T08:26:15;-3.79;68.02
47861;HTU21D;33620;52.340;5.984;2024-01-10T08:28:41;-3.78;68.02
47861;HTU21D;33620;52.340;5.984;2024-01-10T08:31:07;-3.77;68.09
47861;HTU21D;33620;52.340;5.984;2024-01-10T08:33:32;-3.74;68.10
47861;HTU21D;33620;52.340;5.984;2024-01-10T08:35:57;-3.72;67.95
47861;HTU21D;33620;52.340;5.984;2024-01-10T08:38:24;-3.70;67.93
47861;HTU21D;33620;52.340;5.984;2024-01-10T08:40:49;-3.68;67.64
47861;HTU21D;33620;52.340;5.984;2024-01-10T08:43:14;-3.65;67.50
47861;HTU21D;33620;52.340;5.984;2024-01-10T08:45:40;-3.65;67.49
47861;HTU21D;33620;52.340;5.984;2024-01-10T08:48:05;-3.62;67.34
47861;HTU21D;33620;52.340;5.984;2024-01-10T08:50:32;-3.62;66.91
47861;HTU21D;33620;52.340;5.984;2024-01-10T08:52:59;-3.60;67.23
47861;HTU21D;33620;52.340;5.984;2024-01-10T08:55:24;-3.60;67.04
47861;HTU21D;33620;52.340;5.984;2024-01-10T08:57:50;-3.57;66.46
47861;HTU21D;33620;52.340;5.984;2024-01-10T09:00:16;-3.54;66.44
47861;HTU21D;33620;52.340;5.984;2024-01-10T09:02:41;-3.51;65.85
47861;HTU21D;33620;52.340;5.984;2024-01-10T09:05:07;-3.47;66.02
47861;HTU21D;33620;52.340;5.984;2024-01-10T09:07:36;-3.42;65.95
47861;HTU21D;33620;52.340;5.984;2024-01-10T09:10:01;-3.40;65.67
47861;HTU21D;33620;52.340;5.984;2024-01-10T09:12:27;-3.37;65.11
47861;HTU21D;33620;52.340;5.984;2024-01-10T09:14:53;-3.35;64.57
47861;HTU21D;33620;52.340;5.984;2024-01-10T09:17:19;-3.30;64.72
47861;HTU21D;33620;52.340;5.984;2024-01-10T09:19:45;-3.30;64.18
47861;HTU21D;33620;52.340;5.984;2024-01-10T09:22:10;-3.25;63.73
47861;HTU21D;33620;52.340;5.984;2024-01-10T09:24:35;-3.21;63.82
47861;HTU21D;33620;52.340;5.984;2024-01-10T09:27:01;-3.19;63.50
47861;HTU21D;33620;52.340;5.984;2024-01-10T09:29:26;-3.15;63.60
47861;HTU21D;33620;52.340;5.984;2024-01-10T09:31:52;-3.09;63.33
47861;HTU21D;33620;52.340;5.984;2024-01-10T09:34:17;-3.07;63.39
47861;HTU21D;33620;52.340;5.984;2024-01-10T09:36:43;-3.06;62.78
47861;HTU21D;33620;52.340;5.984;2024-01-10T09:39:08;-3.00;62.79
47861;HTU21D;33620;52.340;5.984;2024-01-10T09:41:43;-2.96;62.67
47861;HTU21D;33620;52.340;5.984;2024-01-10T09:44:10;-2.93;62.05
47861;HTU21D;33620;52.340;5.984;2024-01-10T09:46:38;-2.89;61.91
47861;HTU21D;33620;52.340;5.984;2024-01-10T09:49:06;-2.83;61.80
47861;HTU21D;33620;52.340;5.984;2024-01-10T09:51:33;-2.80;61.54
47861;HTU21D;33620;52.340;5.984;2024-01-10T09:54:02;-2.75;61.58
47861;HTU21D;33620;52.340;5.984;2024-01-10T09:56:28;-2.80;59.59
47861;HTU21D;33620;52.340;5.984;2024-01-10T09:58:55;-2.75;60.47
47861;HTU21D;33620;52.340;5.984;2024-01-10T10:01:23;-2.69;60.86
47861;HTU21D;33620;52.340;5.984;2024-01-10T10:03:49;-2.65;60.47
47861;HTU21D;33620;52.340;5.984;2024-01-10T10:06:15;-2.61;60.22
47861;HTU21D;33620;52.340;5.984;2024-01-10T10:08:40;-2.58;60.24
47861;HTU21D;33620;52.340;5.984;2024-01-10T10:11:07;-2.53;60.58
47861;HTU21D;33620;52.340;5.984;2024-01-10T10:13:36;-2.50;59.92
47861;HTU21D;33620;52.340;5.984;2024-01-10T10:16:07;-2.51;58.96
47861;HTU21D;33620;52.340;5.984;2024-01-10T10:18:32;-2.50;58.90
47861;HTU21D;33620;52.340;5.984;2024-01-10T10:21:11;-2.48;58.92
47861;HTU21D;33620;52.340;5.984;2024-01-10T10:23:38;-2.45;59.35
47861;HTU21D;33620;52.340;5.984;2024-01-10T10:26:17;-2.39;59.42
47861;HTU21D;33620;52.340;5.984;2024-01-10T10:28:46;-2.35;59.57
47861;HTU21D;33620;52.340;5.984;2024-01-10T10:31:12;-2.31;59.33
47861;HTU21D;33620;52.340;5.984;2024-01-10T10:33:37;-2.28;59.09
47861;HTU21D;33620;52.340;5.984;2024-01-10T10:36:04;-2.23;58.52
47861;HTU21D;33620;52.340;5.984;2024-01-10T10:38:30;-2.19;58.66
47861;HTU21D;33620;52.340;5.984;2024-01-10T10:40:55;-2.17;58.44
47861;HTU21D;33620;52.340;5.984;2024-01-10T10:43:23;-2.15;58.51
47861;HTU21D;33620;52.340;5.984;2024-01-10T10:45:49;-2.14;58.53
47861;HTU21D;33620;52.340;5.984;2024-01-10T10:48:18;-2.10;57.74
47861;HTU21D;33620;52.340;5.984;2024-01-10T10:50:54;-2.12;57.30
47861;HTU21D;33620;52.340;5.984;2024-01-10T10:53:22;-2.07;57.45
47861;HTU21D;33620;52.340;5.984;2024-01-10T10:55:50;-2.04;58.06
47861;HTU21D;33620;52.340;5.984;2024-01-10T10:58:17;-2.01;57.35
47861;HTU21D;33620;52.340;5.984;2024-01-10T11:00:43;-1.99;57.28
47861;HTU21D;33620;52.340;5.984;2024-01-10T11:03:10;-1.93;57.27
47861;HTU21D;33620;52.340;5.984;2024-01-10T11:05:40;-1.89;57.45
47861;HTU21D;33620;52.340;5.984;2024-01-10T11:08:09;-1.84;57.36
47861;HTU21D;33620;52.340;5.984;2024-01-10T11:10:38;-1.80;56.71
47861;HTU21D;33620;52.340;5.984;2024-01-10T11:24:29;-1.68;55.13
47861;HTU21D;33620;52.340;5.984;2024-01-10T11:27:10;-1.65;55.55
47861;HTU21D;33620;52.340;5.984;2024-01-10T11:29:38;-1.65;55.00
47861;HTU21D;33620;52.340;5.984;2024-01-10T11:32:05;-1.63;54.90
47861;HTU21D;33620;52.340;5.984;2024-01-10T11:34:31;-1.59;55.11
47861;HTU21D;33620;52.340;5.984;2024-01-10T11:37:12;-1.54;54.87
47861;HTU21D;33620;52.340;5.984;2024-01-10T11:39:40;-1.50;55.12
47861;HTU21D;33620;52.340;5.984;2024-01-10T11:42:07;-1.47;55.51
47861;HTU21D;33620;52.340;5.984;2024-01-10T11:44:34;-1.44;55.05
47861;HTU21D;33620;52.340;5.984;2024-01-10T11:47:13;-1.41;54.54
47861;HTU21D;33620;52.340;5.984;2024-01-10T11:49:40;-1.35;54.30
47861;HTU21D;33620;52.340;5.984;2024-01-10T11:52:05;-1.33;53.97
47861;HTU21D;33620;52.340;5.984;2024-01-10T11:54:42;-1.30;54.24
47861;HTU21D;33620;52.340;5.984;2024-01-10T11:57:18;-1.25;54.26
47861;HTU21D;33620;52.340;5.984;2024-01-10T11:59:44;-1.24;53.20
47861;HTU21D;33620;52.340;5.984;2024-01-10T12:02:11;-1.21;53.38
47861;HTU21D;33620;52.340;5.984;2024-01-10T12:04:37;-1.17;53.68
47861;HTU21D;33620;52.340;5.984;2024-01-10T12:07:03;-1.13;53.88
47861;HTU21D;33620;52.340;5.984;2024-01-10T12:09:29;-1.08;53.35
47861;HTU21D;33620;52.340;5.984;2024-01-10T12:11:55;-1.04;52.73
47861;HTU21D;33620;52.340;5.984;2024-01-10T12:14:21;-1.01;52.88
47861;HTU21D;33620;52.340;5.984;2024-01-10T12:16:47;-1.00;52.23
47861;HTU21D;33620;52.340;5.984;2024-01-10T12:19:12;-0.99;51.67
47861;HTU21D;33620;52.340;5.984;2024-01-10T12:21:39;-0.96;52.35
47861;HTU21D;33620;52.340;5.984;2024-01-10T12:24:05;-0.94;51.92
47861;HTU21D;33620;52.340;5.984;2024-01-10T12:26:31;-0.91;51.53
47861;HTU21D;33620;52.340;5.984;2024-01-10T12:28:57;-0.87;52.06
47861;HTU21D;33620;52.340;5.984;2024-01-10T12:31:24;-0.84;51.69
47861;HTU21D;33620;52.340;5.984;2024-01-10T12:33:51;-0.79;51.87
47861;HTU21D;33620;52.340;5.984;2024-01-10T12:36:18;-0.76;51.14
47861;HTU21D;33620;52.340;5.984;2024-01-10T12:38:43;-0.69;51.69
47861;HTU21D;33620;52.340;5.984;2024-01-10T12:41:14;-0.69;51.54
47861;HTU21D;33620;52.340;5.984;2024-01-10T12:43:40;-0.69;51.16
47861;HTU21D;33620;52.340;5.984;2024-01-10T12:46:14;-0.65;51.08
47861;HTU21D;33620;52.340;5.984;2024-01-10T12:48:41;-0.64;51.74
47861;HTU21D;33620;52.340;5.984;2024-01-10T12:51:12;-0.61;51.25
47861;HTU21D;33620;52.340;5.984;2024-01-10T12:53:42;-0.57;51.04
47861;HTU21D;33620;52.340;5.984;2024-01-10T12:56:09;-0.55;51.09
47861;HTU21D;33620;52.340;5.984;2024-01-10T12:58:35;-0.51;50.15
47861;HTU21D;33620;52.340;5.984;2024-01-10T13:01:05;-0.45;50.77
47861;HTU21D;33620;52.340;5.984;2024-01-10T13:03:30;-0.44;50.53
47861;HTU21D;33620;52.340;5.984;2024-01-10T13:05:55;-0.40;50.68
47861;HTU21D;33620;52.340;5.984;2024-01-10T13:08:21;-0.39;50.84
47861;HTU21D;33620;52.340;5.984;2024-01-10T13:10:47;-0.39;50.34
47861;HTU21D;33620;52.340;5.984;2024-01-10T13:13:14;-0.38;48.81
47861;HTU21D;33620;52.340;5.984;2024-01-10T13:15:41;-0.36;49.69
47861;HTU21D;33620;52.340;5.984;2024-01-10T13:18:07;-0.31;50.28
47861;HTU21D;33620;52.340;5.984;2024-01-10T13:20:35;-0.31;49.95
47861;HTU21D;33620;52.340;5.984;2024-01-10T13:23:00;-0.29;50.37
47861;HTU21D;33620;52.340;5.984;2024-01-10T13:25:26;-0.25;50.55
47861;HTU21D;33620;52.340;5.984;2024-01-10T13:27:53;-0.25;49.79
47861;HTU21D;33620;52.340;5.984;2024-01-10T13:30:19;-0.24;50.25
47861;HTU21D;33620;52.340;5.984;2024-01-10T13:32:45;-0.21;50.73
47861;HTU21D;33620;52.340;5.984;2024-01-10T13:35:15;-0.20;50.32
47861;HTU21D;33620;52.340;5.984;2024-01-10T13:37:42;-0.20;50.40
47861;HTU21D;33620;52.340;5.984;2024-01-10T13:40:09;-0.19;50.04
47861;HTU21D;33620;52.340;5.984;2024-01-10T13:42:36;-0.21;49.40
47861;HTU21D;33620;52.340;5.984;2024-01-10T13:45:04;-0.20;49.31
47861;HTU21D;33620;52.340;5.984;2024-01-10T13:47:30;-0.17;49.91
47861;HTU21D;33620;52.340;5.984;2024-01-10T13:49:56;-0.17;49.37
47861;HTU21D;33620;52.340;5.984;2024-01-10T13:52:21;-0.16;49.27
47861;HTU21D;33620;52.340;5.984;2024-01-10T13:54:46;-0.14;49.21
47861;HTU21D;33620;52.340;5.984;2024-01-10T13:57:12;-0.15;48.17
47861;HTU21D;33620;52.340;5.984;2024-01-10T13:59:37;-0.12;48.84
47861;HTU21D;33620;52.340;5.984;2024-01-10T14:02:02;-0.11;48.93
47861;HTU21D;33620;52.340;5.984;2024-01-10T14:04:28;-0.10;48.88
47861;HTU21D;33620;52.340;5.984;2024-01-10T14:06:53;-0.08;49.25
47861;HTU21D;33620;52.340;5.984;2024-01-10T14:09:19;-0.07;48.95
47861;HTU21D;33620;52.340;5.984;2024-01-10T14:11:44;-0.07;49.26
47861;HTU21D;33620;52.340;5.984;2024-01-10T14:14:10;-0.03;49.37
47861;HTU21D;33620;52.340;5.984;2024-01-10T14:16:35;-0.05;49.15
47861;HTU21D;33620;52.340;5.984;2024-01-10T14:19:01;-0.05;48.53
47861;HTU21D;33620;52.340;5.984;2024-01-10T14:21:26;-0.03;48.60
47861;HTU21D;33620;52.340;5.984;2024-01-10T14:23:52;-0.02;48.88
47861;HTU21D;33620;52.340;5.984;2024-01-10T14:26:17;-0.05;48.75
47861;HTU21D;33620;52.340;5.984;2024-01-10T14:28:43;-0.05;48.91
47861;HTU21D;33620;52.340;5.984;2024-01-10T14:31:09;-0.02;48.30
47861;HTU21D;33620;52.340;5.984;2024-01-10T14:33:35;-0.03;47.85
47861;HTU21D;33620;52.340;5.984;2024-01-10T14:36:00;-0.05;47.64
47861;HTU21D;33620;52.340;5.984;2024-01-10T14:38:26;-0.03;47.70
47861;HTU21D;33620;52.340;5.984;2024-01-10T14:40:51;-0.03;48.25
47861;HTU21D;33620;52.340;5.984;2024-01-10T14:43:17;-0.03;48.10
47861;HTU21D;33620;52.340;5.984;2024-01-10T14:45:43;-0.01;48.63
47861;HTU21D;33620;52.340;5.984;2024-01-10T14:48:09;-0.03;48.47
47861;HTU21D;33620;52.340;5.984;2024-01-10T14:50:34;-0.05;48.83
47861;HTU21D;33620;52.340;5.984;2024-01-10T14:52:59;-0.05;48.57
47861;HTU21D;33620;52.340;5.984;2024-01-10T14:55:25;-0.05;49.21
47861;HTU21D;33620;52.340;5.984;2024-01-10T14:57:50;-0.05;49.02
47861;HTU21D;33620;52.340;5.984;2024-01-10T15:00:16;-0.07;48.88
47861;HTU21D;33620;52.340;5.984;2024-01-10T15:02:41;-0.06;49.12
47861;HTU21D;33620;52.340;5.984;2024-01-10T15:05:07;-0.07;49.21
47861;HTU21D;33620;52.340;5.984;2024-01-10T15:07:32;-0.08;49.16
47861;HTU21D;33620;52.340;5.984;2024-01-10T15:09:58;-0.08;49.44
47861;HTU21D;33620;52.340;5.984;2024-01-10T15:12:28;-0.10;49.60
47861;HTU21D;33620;52.340;5.984;2024-01-10T15:14:53;-0.14;48.76
47861;HTU21D;33620;52.340;5.984;2024-01-10T15:17:19;-0.13;48.91
47861;HTU21D;33620;52.340;5.984;2024-01-10T15:19:44;-0.13;49.12